Terminal Aerodrome Forecast
Issued by NWS

Home | Current Version | Previous Version | Text Only | Print | Product List | Glossary On
Versions: 1 2 3 4 5 6 7 8 9 10 11 12 13 14 15
010
FTUS42 TJSJ 241120
TAFJMZ
TAF
TJMZ 241120Z 2412/2512 06005KT P6SM VCSH SCT030 SCT060
     FM241400 08010KT P6SM FEW030 SCT060
     FM241600 09015KT P6SM VCSH SCT025 BKN050
      TEMPO 2418/2421 VRB16G22KT 4SM TSRA BKN025CB
     FM242300 06005KT P6SM FEW025 SCT050 SCT100
      AMD NOT SKED=

USA.gov is the U.S. government's official web portal to all federal, state and local government web resources and services.